Virgo Phoenix — 3FMO8 — position and weather

sailwx.info

Track history (hours):
 
Tides and Currents Weather Stations Pressure Air Temp Water Temp Dewpoint Dewpoint Depression Visibility Wind Speed Wind Dir Waves Ship Positions

Virgo Phoenix

Last reported at 2015-Jul-29 15:13 UTC. Time now 2015-Jul-29 15:54 UTC.
Position N 31°01' E 122°38'.

Length 96 m; draft 6.4 m.

Type: Ship (hazmat cat B). MMSI: 370795000.

Date/timePositionNaut miles runAvg speedWind from/ knotsBaromVisibWave heightAir tempDewpointWater temp
2015-Jul-29 15:13N 31°01' E 122°38'0 0.0
2015-Jul-29 09:28N 31°01' E 122°38'0 0.1
2015-Jul-29 08:28N 31°01' E 122°38'0 0.0
2015-Jul-29 07:13N 31°01' E 122°38'0 0.0
2015-Jul-29 04:25N 31°01' E 122°38'1 1.0
2015-Jul-29 03:32N 31°00' E 122°39'5011.7
2015-Jul-28 23:17N 31°01' E 123°37'4712.3
2015-Jul-28 19:29N 31°03' E 124°32'  
2015-Jul-25 17:33N 35°05' E 139°39'1212.2
2015-Jul-25 16:33N 35°16' E 139°46'1110.9
2015-Jul-25 15:33N 35°27' E 139°47'1312.6
2015-Jul-25 14:33N 35°32' E 140°01'2 2.3
2015-Jul-25 13:33N 35°32' E 140°03'0 0.0
2015-Jul-25 12:27N 35°32' E 140°03'0 0.0
2015-Jul-25 11:27N 35°32' E 140°03'0 0.0
2015-Jul-25 10:21N 35°32' E 140°03'0 0.0
2015-Jul-25 09:33N 35°32' E 140°03'0 0.0
2015-Jul-25 08:30N 35°32' E 140°03'0 0.0
2015-Jul-25 07:33N 35°32' E 140°03'0 0.0
2015-Jul-25 06:24N 35°32' E 140°03'0 0.0
2015-Jul-25 05:30N 35°32' E 140°03'0 0.0
2015-Jul-25 04:30N 35°32' E 140°03'1 1.0
2015-Jul-25 03:33N 35°32' E 140°03'1313.1
2015-Jul-25 02:33N 35°26' E 139°48'1212.0
2015-Jul-25 01:33N 35°14' E 139°47'1413.6
2015-Jul-25 00:33N 35°02' E 139°39'6115.1
2015-Jul-24 20:30N 34°30' E 138°36'180 5.6
2015-Jul-23 12:32N 34°14' E 134°58'1512.3
2015-Jul-23 11:20N 34°27' E 135°09'1113.9
2015-Jul-23 10:33N 34°32' E 135°20'0 0.0
2015-Jul-23 03:33N 34°32' E 135°20'1313.0
2015-Jul-23 02:33N 34°24' E 135°08'1313.1
2015-Jul-23 01:34N 34°13' E 134°59'  
Track history (hours):
 
Tides and Currents Weather Stations Pressure Air Temp Water Temp Dewpoint Dewpoint Depression Visibility Wind Speed Wind Dir Waves Ship Positions

Virgo Phoenix

Last reported at 2015-Jul-29 15:13 UTC. Time now 2015-Jul-29 15:54 UTC.
Position N 31°01' E 122°38'.

Length 96 m; draft 6.4 m.

Type: Ship (hazmat cat B). MMSI: 370795000.

Date/timePositionNaut miles runAvg speedWind from/ knotsBaromVisibWave heightAir tempDewpointWater temp
2015-Jul-29 15:13N 31°01' E 122°38'0 0.0
2015-Jul-29 09:28N 31°01' E 122°38'0 0.1
2015-Jul-29 08:28N 31°01' E 122°38'0 0.0
2015-Jul-29 07:13N 31°01' E 122°38'0 0.0
2015-Jul-29 04:25N 31°01' E 122°38'1 1.0
2015-Jul-29 03:32N 31°00' E 122°39'5011.7
2015-Jul-28 23:17N 31°01' E 123°37'4712.3
2015-Jul-28 19:29N 31°03' E 124°32'  
2015-Jul-25 17:33N 35°05' E 139°39'1212.2
2015-Jul-25 16:33N 35°16' E 139°46'1110.9
2015-Jul-25 15:33N 35°27' E 139°47'1312.6
2015-Jul-25 14:33N 35°32' E 140°01'2 2.3
2015-Jul-25 13:33N 35°32' E 140°03'0 0.0
2015-Jul-25 12:27N 35°32' E 140°03'0 0.0
2015-Jul-25 11:27N 35°32' E 140°03'0 0.0
2015-Jul-25 10:21N 35°32' E 140°03'0 0.0
2015-Jul-25 09:33N 35°32' E 140°03'0 0.0
2015-Jul-25 08:30N 35°32' E 140°03'0 0.0
2015-Jul-25 07:33N 35°32' E 140°03'0 0.0
2015-Jul-25 06:24N 35°32' E 140°03'0 0.0
2015-Jul-25 05:30N 35°32' E 140°03'0 0.0
2015-Jul-25 04:30N 35°32' E 140°03'1 1.0
2015-Jul-25 03:33N 35°32' E 140°03'1313.1
2015-Jul-25 02:33N 35°26' E 139°48'1212.0
2015-Jul-25 01:33N 35°14' E 139°47'1413.6
2015-Jul-25 00:33N 35°02' E 139°39'6115.1
2015-Jul-24 20:30N 34°30' E 138°36'180 5.6
2015-Jul-23 12:32N 34°14' E 134°58'1512.3
2015-Jul-23 11:20N 34°27' E 135°09'1113.9
2015-Jul-23 10:33N 34°32' E 135°20'0 0.0
2015-Jul-23 03:33N 34°32' E 135°20'1313.0
2015-Jul-23 02:33N 34°24' E 135°08'1313.1
2015-Jul-23 01:34N 34°13' E 134°59'  

Dump ship's entire track history